Flight Track Log - Related Links

Times and Time Zones

All times are in EDT time to prevent confusion due to time zone crossing. See the FLG3432 flight status page for this flight to view local times or setup timezone preferences in your user account.

Time Position Orientation Groundspeed Altitude Reporting Facility
EDT Latitude Longitude Course Direction KTS MPH feet Rate Location/Type
Sun 09:05:22 40.6167 -73.8000 229° Southwest 154 177 1,500  Level New York TRACON
Sun 09:06:16 40.5667 -73.8333 207° Southwest 202 232 3,400 2,263 Climbing New York TRACON
Sun 09:07:16 40.5167 -73.8667 207° Southwest 259 298 5,800 2,600 Climbing New York TRACON
Sun 09:08:00 40.3743 -74.1870 233° Southwest  Level FlightAware Approximate
Sun 09:08:16 40.4667 -73.9333 225° Southwest 278 320 8,600  Level New York TRACON
Sun 09:09:00 40.3079 -74.2981 232° Southwest  Level FlightAware Approximate
Sun 09:10:00 40.2451 -74.4073 229° Southwest  Level FlightAware Approximate
Sun 09:10:29 40.3631 -74.1567 239° Southwest 321 369 13,400  Level New York Center
Sun 09:11:30 40.3369 -74.2617 252° West 339 390 15,700 1,866 Climbing New York Center
Sun 09:12:28 40.3097 -74.4047 256° West 358 412 17,100 1,220 Climbing New York Center
Sun 09:13:28 40.2825 -74.5444 256° West 391 450 18,100 1,289 Climbing New York Center
Sun 09:14:29 40.2589 -74.6903 258° West 402 463 19,700 942 Climbing New York Center
Sun 09:15:29 40.2311 -74.8328 256° West 412 474 20,000 148 Climbing New York Center
Sun 09:16:31 40.2053 -74.9753 257° West 417 480 20,000  Level New York Center
Sun 09:17:28 40.1814 -75.1150 257° West 407 468 20,000  Level New York Center
Sun 09:18:29 40.1578 -75.2467 257° West 412 474 20,000  Level New York Center
Sun 09:19:30 40.1233 -75.3856 252° West 412 474 20,000  Level New York Center
Sun 09:20:30 40.0458 -75.4997 228° Southwest 407 468 20,000  Level New York Center
Sun 09:21:28 39.9664 -75.6083 226° Southwest 413 475 20,000  Level New York Center
Sun 09:22:31 39.8928 -75.7250 231° Southwest 418 481 20,000 -350 Level New York Center
Sun 09:23:28 39.8169 -75.8411 230° Southwest 418 481 19,300 -974 Descending New York Center
Sun 09:24:28 39.7411 -75.9544 229° Southwest 404 465 18,100 -1,350 Descending New York Center
Sun 09:25:28 39.6806 -76.0525 231° Southwest 393 452 16,600 -1,488 Descending New York Center
Sun 09:26:29 39.6039 -76.1736 231° Southwest 399 459 15,100 -1,252 Descending New York Center
Sun 09:27:47 39.5167 -76.3000 228° Southwest 366 421 13,700 -1,364 Descending Potomac TRACON
Sun 09:28:41 39.4667 -76.4000 237° Southwest 355 409 12,100 -887 Descending Potomac TRACON
Sun 09:29:42 39.3833 -76.4833 218° Southwest 368 423 12,000 -545 Descending Potomac TRACON
Sun 09:30:42 39.3000 -76.5500 212° Southwest 363 418 11,000 -1,000 Descending Potomac TRACON
Sun 09:31:42 39.2167 -76.6167 212° Southwest 343 395 10,000 -496 Descending Potomac TRACON
Sun 09:32:43 39.1500 -76.7167 229° Southwest 355 409 10,000  Level Potomac TRACON
Sun 09:33:37 39.1167 -76.8167 247° West 345 397 10,000  Level Potomac TRACON
Sun 09:34:37 39.1000 -76.9333 260° West 329 379 10,000 -316 Level Potomac TRACON
Sun 09:35:31 39.0667 -77.0167 243° Southwest 277 319 9,400 -1,222 Descending Potomac TRACON
Sun 09:36:25 39.0833 -77.1000 284° West 279 321 7,800 -1,789 Descending Potomac TRACON
Sun 09:37:25 39.0833 -77.2000 270° West 273 314 6,000 -1,252 Descending Potomac TRACON
Sun 09:38:20 39.0667 -77.2667 252° West 241 277 5,400 -730 Descending Potomac TRACON
Sun 09:39:20 39.0167 -77.2500 165° South 186 214 4,600 -1,000 Descending Potomac TRACON
Sun 09:40:20 39.0000 -77.2000 113° Southeast 149 171 3,400 -800 Descending Potomac TRACON
Sun 09:41:20 38.9833 -77.1667 123° Southeast 140 161 3,000 -211 Descending Potomac TRACON
Sun 09:42:14 38.9500 -77.1333 142° Southeast 137 158 3,000 -316 Level Potomac TRACON
Sun 09:43:14 38.9333 -77.1167 142° Southeast 123 142 2,400 -600 Descending Potomac TRACON

Login

Don't have an account? Register now (free) for customized features, flight alerts, and more!